DIRECCIÓN GENERAL DE AERONÁUTICA CIVIL
DIRECCIÓN METEOROLÓGICA DE CHILE
INFORMACIÓN METAR Y TAF

FIR SANTIAGO

Estación: SCSE
METAR SCSE 221500Z 29008KT 9999 FEW020 SCT250 18/12 Q1015=

TAF SCSE 221030Z 2212/2312 VRB02KT 9999 OVC014 TX18/2218Z TN11/2310Z TEMPO 2212/2214 2000 BR OVC004 BECMG 2216/2218 28012KT SCT015 BECMG 2218/2220 CAVOK BECMG 2304/2306 VRB02KT BKN010=

Estación: SCER
NIL=

NIL=

Estación: SCRD
METAR SCRD 221500Z 30005KT 9999 VCFG SKC 16/12 Q1015=

TAF SCRD 221015Z 2212/2224 VRB02KT 1500 BR BKN006 TX26/2218Z TN10/ 2212Z TEMPO 2212/2214 0400 FG BKN002 BECMG 2214/2216 5000 BR BKN010 BECMG 2216/2218 30010KT 9999 SCT010=

Estación: SCVM
METAR SCVM 221500Z 33007KT 4000 BR BKN018 15/12 Q1015=

TAF SCVM 221030Z 2212/2312 VRB02KT 1500 BR OVC005 TX18/2218Z TN11/ 2310Z TEMPO 2212/2214 0400 FG OVC001 BECMG 2213/2215 5000 BR BKN010 BECMG 2215/2217 30012KT 9999 SCT015 BECMG 2301/2303 30005KT BECMG 2304/2306 VRB02KT BKN010=

Estación: SCTB
METAR SCTB 221500Z 18003KT 8000 SKC 24/13 Q1016=

TAF SCTB 221015Z 2212/2224 VRB02KT CAVOK TX30/2218Z TN11/2212Z BECMG 2215/2217 23008KT=

Estación: SCEL
METAR SCEL 221500Z 26004KT 200V330 CAVOK 24/12 Q1015 NOSIG=

TAF SCEL 221030Z 2212/2312 VRB02KT CAVOK TX29/2219Z TN10/2310Z TEMPO 2212/2214 5000 HZ BECMG 2214/2216 19015KT CAVOK BECMG 2301/2303 17005KT=

Estación: SCSN
METAR SCSN 221500Z 25008KT 9999 SCT007 14/12 Q1016=

TAF SCSN 221015Z 2212/2224 VRB02KT 2000 BR BKN005 TX18/2218Z TN09/ 2212Z TEMPO 2212/2214 0500 FG BKN002 BECMG 2216/2218 24010KT SCT015 BECMG 2218/2220 CAVOK=

Estación: SCRG
METAR SCRG 221500Z 17013KT CAVOK 21/14 Q1015=

TAF SCRG 221020Z 2212/2224 VRB02KT CAVOK TX29/2219Z TN11/2212Z BECMG 2214/2216 17010KT=

Estación: SCIC
METAR SCIC 221500Z 17006KT 100V240 CAVOK 18/12 Q1015=

TAF SCIC 221020Z 2212/2224 21005KT CAVOK TX28/2218Z TN11/2212Z TEMPO 2212/2214 0500 FG BKN005 BECMG 2215/2217 22010KT=

Estación: SCCH
METAR SCCH 221400Z 21007KT CAVOK 18/14 Q1017=

TAF SCCH 221020Z 2212/2224 20005KT 2000 BR BKN006 TX26/2218Z TN10/ 2212Z TEMPO 2212/2214 0500 FG BKN002 BECMG 2215/2217 9999 SCT010 BECMG 2218/2220 20010KT CAVOK=

Estación: SCIE
METAR SCIE 221500Z 24008KT 210V280 CAVOK 19/13 Q1018=

TAF SCIE 221030Z 2212/2312 21005KT 9999 OVC006 TX20/2218Z TN11/2310Z TEMPO 2212/2214 2000 BR BKN002 BECMG 2214/2216 18005KT 8000 SCT012 BECMG 2218/2220 22015KT CAVOK BECMG 2302/2304 22005KT=

Estación: SCGE
METAR SCGE 221500Z 18010KT CAVOK 18/11 Q1018=

TAF SCGE 221020Z 2212/2224 VRB02KT CAVOK TX27/2218Z TN12/2212Z TEMPO 2212/2214 2000 BR BECMG 2217/2219 30008KT=


Volver